Time;durP1;ratioP1;P1;durP2;ratioP2;P2;SDS_P1;SDS_P2;PMS_P1;PMS_P2;Temp;Humidity;BMP_temperature;BMP_pressure;BME280_temperature;BME280_humidity;BME280_pressure;Samples;Min_cycle;Max_cycle;Signal;HPM_P1;HPM_P2
2024/01/20 00:00:57;;;;;;;21.27;12.07;;;;;;;-2.04;84.23;100618.63;5070996;28;20248;-57
2024/01/20 00:03:25;;;;;;;20.90;11.53;;;;;;;-2.02;84.36;100628.81;5065075;28;20284;-56
2024/01/20 00:05:54;;;;;;;19.27;12.23;;;;;;;-2.02;84.22;100628.81;5073665;28;20736;-57
2024/01/20 00:08:22;;;;;;;21.03;11.50;;;;;;;-1.99;84.25;100627.31;5066187;28;20649;-56
2024/01/20 00:10:50;;;;;;;22.93;12.07;;;;;;;-1.97;84.40;100620.66;5066757;28;20692;-55
2024/01/20 00:13:19;;;;;;;22.20;13.27;;;;;;;-1.93;84.13;100619.13;5067637;28;20648;-55
2024/01/20 00:15:47;;;;;;;23.90;12.63;;;;;;;-1.91;83.98;100622.63;5069803;28;20255;-60
2024/01/20 00:18:15;;;;;;;21.57;13.03;;;;;;;-1.87;83.90;100623.63;5074221;28;20202;-55
2024/01/20 00:20:45;;;;;;;21.93;13.73;;;;;;;-1.84;84.13;100626.28;5070640;28;20222;-54
2024/01/20 00:23:14;;;;;;;22.60;14.03;;;;;;;-1.81;84.01;100619.72;5070814;28;20224;-55
2024/01/20 00:25:42;;;;;;;25.37;13.53;;;;;;;-1.78;84.54;100621.53;5070347;28;20238;-56
2024/01/20 00:28:10;;;;;;;27.87;15.70;;;;;;;-1.75;85.53;100611.56;5070542;28;20198;-57
2024/01/20 00:30:40;;;;;;;28.97;15.17;;;;;;;-1.79;87.55;100607.16;5073070;28;20292;-54
2024/01/20 00:33:09;;;;;;;30.30;16.97;;;;;;;-1.83;89.20;100613.75;5073275;28;20212;-56
2024/01/20 00:35:42;;;;;;;29.70;16.47;;;;;;;-1.86;90.03;100616.13;5064185;28;20207;-57
2024/01/20 00:38:10;;;;;;;27.83;15.63;;;;;;;-1.86;90.60;100605.16;5069651;28;20205;-60
2024/01/20 00:40:38;;;;;;;26.07;16.33;;;;;;;-1.86;91.55;100606.00;5066726;28;20650;-57
2024/01/20 00:43:06;;;;;;;28.43;15.10;;;;;;;-1.86;91.38;100602.63;5070459;28;20205;-60
2024/01/20 00:45:34;;;;;;;27.83;15.63;;;;;;;-1.86;91.49;100602.63;5066655;28;20209;-54
2024/01/20 00:48:05;;;;;;;33.13;14.87;;;;;;;-1.90;91.76;100585.59;5071769;28;20743;-57
2024/01/20 00:50:33;;;;;;;32.40;15.43;;;;;;;-1.89;91.79;100594.91;5070386;28;20237;-58
2024/01/20 00:53:01;;;;;;;26.03;14.83;;;;;;;-1.91;91.65;100592.31;5070562;28;20219;-57
2024/01/20 00:55:29;;;;;;;28.53;16.47;;;;;;;-1.91;92.58;100597.38;5070690;28;20288;-56
2024/01/20 00:57:57;;;;;;;29.20;15.40;;;;;;;-1.89;92.71;100600.81;5073330;28;20567;-57
2024/01/20 01:00:24;;;;;;;30.07;15.23;;;;;;;-1.88;93.54;100589.91;5071956;28;20209;-56
2024/01/20 01:02:52;;;;;;;29.93;17.10;;;;;;;-1.87;93.79;100601.75;5066592;28;20212;-56
2024/01/20 01:05:22;;;;;;;28.33;16.03;;;;;;;-1.84;94.08;100590.91;5071504;28;20684;-56
2024/01/20 01:07:50;;;;;;;33.87;17.30;;;;;;;-1.83;94.99;100578.38;5070717;28;20285;-57
2024/01/20 01:10:18;;;;;;;27.97;17.27;;;;;;;-1.81;95.10;100573.38;5070591;28;20232;-54
2024/01/20 01:12:46;;;;;;;27.80;15.47;;;;;;;-1.80;95.11;100567.56;5069845;28;20209;-54
2024/01/20 01:15:14;;;;;;;26.67;15.13;;;;;;;-1.79;95.40;100565.09;5072447;28;20557;-59
2024/01/20 01:17:42;;;;;;;28.40;17.50;;;;;;;-1.77;94.17;100576.16;5065015;28;20663;-56
2024/01/20 01:20:11;;;;;;;25.07;15.87;;;;;;;-1.75;94.63;100584.66;5072359;28;20288;-56
2024/01/20 01:22:40;;;;;;;28.07;15.00;;;;;;;-1.72;93.59;100581.41;5069977;28;20193;-55
2024/01/20 01:25:09;;;;;;;30.00;16.67;;;;;;;-1.68;93.74;100597.56;5072401;28;20630;-58
2024/01/20 01:27:37;;;;;;;25.37;16.17;;;;;;;-1.66;92.79;100581.66;5072291;28;20197;-52
2024/01/20 01:30:07;;;;;;;25.43;14.73;;;;;;;-1.63;92.71;100578.44;5072706;28;20550;-57
2024/01/20 01:32:35;;;;;;;30.73;15.50;;;;;;;-1.61;92.72;100590.34;5072572;28;20201;-54
2024/01/20 01:35:04;;;;;;;27.00;15.30;;;;;;;-1.58;92.71;100587.97;5068210;28;20212;-55
2024/01/20 01:37:32;;;;;;;28.03;15.37;;;;;;;-1.53;91.89;100596.59;5071786;28;20198;-53
2024/01/20 01:40:01;;;;;;;28.90;16.20;;;;;;;-1.51;91.02;100605.13;5069641;28;20648;-56
2024/01/20 01:42:29;;;;;;;26.77;16.10;;;;;;;-1.48;90.92;100592.63;5072092;28;20279;-55
2024/01/20 01:44:57;;;;;;;24.57;14.40;;;;;;;-1.44;90.58;100608.78;5071771;28;20239;-54
2024/01/20 01:47:25;;;;;;;26.03;14.87;;;;;;;-1.39;90.44;100606.50;5071896;28;20228;-58
2024/01/20 01:49:53;;;;;;;24.10;14.33;;;;;;;-1.36;90.31;100601.53;5071357;28;20703;-56
2024/01/20 01:52:23;;;;;;;24.67;14.63;;;;;;;-1.33;90.82;100597.50;5054015;28;20221;-57
2024/01/20 01:54:52;;;;;;;25.80;15.97;;;;;;;-1.29;91.41;100598.50;5072173;28;20655;-55
2024/01/20 01:57:22;;;;;;;25.93;14.50;;;;;;;-1.30;92.31;100597.63;5071498;28;20197;-57
2024/01/20 01:59:50;;;;;;;29.80;14.63;;;;;;;-1.29;92.67;100603.56;5070893;28;20288;-56
2024/01/20 02:02:18;;;;;;;22.73;14.17;;;;;;;-1.31;92.77;100600.97;5060646;28;20707;-56
2024/01/20 02:04:46;;;;;;;29.93;15.23;;;;;;;-1.29;93.26;100608.59;5069547;28;20201;-62
2024/01/20 02:07:15;;;;;;;23.03;13.63;;;;;;;-1.34;93.47;100598.31;5070427;28;20209;-57
2024/01/20 02:09:45;;;;;;;24.50;14.17;;;;;;;-1.34;94.15;100594.91;5066062;28;20259;-56
2024/01/20 02:12:14;;;;;;;25.40;15.60;;;;;;;-1.33;93.86;100597.50;5069992;28;20212;-56
2024/01/20 02:14:45;;;;;;;22.53;13.73;;;;;;;-1.32;94.02;100599.25;5071666;28;20648;-57
2024/01/20 02:17:13;;;;;;;22.03;13.17;;;;;;;-1.31;93.82;100592.53;5065455;28;20672;-54
2024/01/20 02:19:41;;;;;;;26.53;14.67;;;;;;;-1.29;92.71;100603.56;5066089;28;20648;-54
2024/01/20 02:22:11;;;;;;;27.07;15.20;;;;;;;-1.29;91.90;100590.91;5071508;28;20227;-57
2024/01/20 02:24:40;;;;;;;20.07;13.27;;;;;;;-1.30;92.17;100592.59;5070442;28;20201;-53
2024/01/20 02:27:09;;;;;;;23.60;14.57;;;;;;;-1.24;91.57;100592.00;5067705;28;20236;-56
2024/01/20 02:29:38;;;;;;;21.97;12.73;;;;;;;-1.24;91.11;100594.53;5061163;28;20259;-53
2024/01/20 02:32:06;;;;;;;20.70;12.77;;;;;;;-1.21;90.59;100587.09;5070799;28;20193;-52
2024/01/20 02:34:36;;;;;;;20.77;13.23;;;;;;;-1.20;89.78;100583.75;5071153;28;20212;-56
2024/01/20 02:37:07;;;;;;;26.67;13.03;;;;;;;-1.17;89.63;100572.94;5071290;28;20619;-54
2024/01/20 02:39:36;;;;;;;23.50;13.50;;;;;;;-1.14;89.05;100573.03;5068087;28;20211;-57
2024/01/20 02:42:08;;;;;;;26.37;13.20;;;;;;;-1.13;88.85;100559.63;5067658;28;20691;-57
2024/01/20 02:44:36;;;;;;;22.73;12.37;;;;;;;-1.11;88.08;100573.16;5070909;28;20205;-55
2024/01/20 02:47:04;;;;;;;25.10;13.60;;;;;;;-1.09;87.66;100567.38;5063659;28;20220;-56
2024/01/20 02:49:33;;;;;;;29.90;11.70;;;;;;;-1.06;87.95;100544.78;5066904;28;20702;-56
2024/01/20 02:52:01;;;;;;;20.27;11.77;;;;;;;-1.04;87.44;100560.84;5071120;28;20675;-57
2024/01/20 02:54:29;;;;;;;24.13;11.50;;;;;;;-1.03;86.72;100562.63;5069915;28;20247;-57
2024/01/20 02:56:58;;;;;;;20.03;12.27;;;;;;;-1.04;86.61;100555.81;5071264;28;20660;-55
2024/01/20 02:59:26;;;;;;;17.90;10.60;;;;;;;-1.01;86.81;100568.59;5071050;28;20216;-55
2024/01/20 03:01:54;;;;;;;22.87;11.37;;;;;;;-1.00;86.45;100567.78;5070893;28;20205;-58
2024/01/20 03:04:22;;;;;;;24.60;11.70;;;;;;;-0.98;85.80;100555.22;5068906;28;20201;-52
2024/01/20 03:06:50;;;;;;;18.50;10.07;;;;;;;-0.97;85.79;100562.00;5069707;28;20714;-54
2024/01/20 03:09:18;;;;;;;23.03;10.83;;;;;;;-0.94;85.72;100571.38;5071119;28;20587;-54
2024/01/20 03:11:46;;;;;;;17.93;10.57;;;;;;;-0.93;85.45;100566.38;5070780;28;20292;-56
2024/01/20 03:14:15;;;;;;;22.17;12.13;;;;;;;-0.92;85.30;100578.25;5070989;28;20201;-54
2024/01/20 03:16:43;;;;;;;18.37;10.37;;;;;;;-0.92;85.39;100584.94;5070354;28;20682;-55
2024/01/20 03:19:11;;;;;;;19.93;10.67;;;;;;;-0.92;85.39;100580.78;5071109;28;20197;-57
2024/01/20 03:21:39;;;;;;;20.20;10.87;;;;;;;-0.88;85.30;100589.38;5067274;28;20575;-55
2024/01/20 03:24:09;;;;;;;17.73;10.17;;;;;;;-0.88;85.10;100585.16;5058152;28;20201;-56
2024/01/20 03:26:37;;;;;;;20.87;12.13;;;;;;;-0.89;85.18;100596.06;5063322;28;20258;-55
2024/01/20 03:29:05;;;;;;;20.07;10.33;;;;;;;-0.92;85.39;100598.47;5066196;28;20202;-54
2024/01/20 03:31:35;;;;;;;23.03;13.03;;;;;;;-0.91;85.46;100591.75;5070449;28;20250;-54
2024/01/20 03:34:03;;;;;;;22.40;11.53;;;;;;;-0.94;85.22;100594.16;5070915;28;20201;-57
2024/01/20 03:36:31;;;;;;;19.37;9.90;;;;;;;-0.95;85.50;100594.97;5073403;28;20197;-56
2024/01/20 03:38:59;;;;;;;21.20;10.47;;;;;;;-0.97;85.59;100598.25;5074557;28;20304;-56
2024/01/20 03:41:27;;;;;;;18.77;10.40;;;;;;;-1.00;86.16;100588.00;5069557;28;20229;-55
2024/01/20 03:43:55;;;;;;;19.73;10.80;;;;;;;-0.99;86.71;100596.50;5074199;28;20213;-57
2024/01/20 03:46:24;;;;;;;22.97;11.77;;;;;;;-1.00;86.50;100612.44;5074160;28;20229;-62
2024/01/20 03:48:53;;;;;;;19.07;10.27;;;;;;;-1.01;86.64;100598.06;5064464;28;20206;-57
2024/01/20 03:51:22;;;;;;;19.53;9.93;;;;;;;-1.00;86.65;100608.25;5069239;28;20197;-55
2024/01/20 03:53:50;;;;;;;16.57;10.50;;;;;;;-1.00;85.72;100593.06;5073600;28;20220;-55
2024/01/20 03:56:18;;;;;;;18.77;9.70;;;;;;;-1.01;85.25;100576.16;5071557;28;20206;-53
2024/01/20 03:58:46;;;;;;;20.40;10.80;;;;;;;-1.00;85.81;100572.84;5067535;28;20719;-56
2024/01/20 04:01:14;;;;;;;21.87;11.50;;;;;;;-0.99;85.98;100569.53;5067094;28;20201;-52
2024/01/20 04:03:42;;;;;;;21.37;10.17;;;;;;;-0.97;86.21;100582.22;5069814;28;20292;-56
2024/01/20 04:06:11;;;;;;;21.47;10.63;;;;;;;-1.01;86.82;100562.66;5062100;28;20253;-56
2024/01/20 04:08:39;;;;;;;27.37;10.07;;;;;;;-1.00;87.33;100567.78;5067818;28;20215;-54
2024/01/20 04:11:07;;;;;;;18.90;9.77;;;;;;;-1.02;87.36;100566.00;5073783;28;20204;-56
2024/01/20 04:13:35;;;;;;;18.57;10.00;;;;;;;-1.04;87.17;100565.06;5074308;28;20204;-56
2024/01/20 04:16:04;;;;;;;15.43;9.57;;;;;;;-1.05;87.63;100554.06;5071211;28;20209;-56
2024/01/20 04:18:32;;;;;;;17.47;9.20;;;;;;;-1.01;87.83;100566.06;5079983;28;20212;-57
2024/01/20 04:21:00;;;;;;;19.67;9.67;;;;;;;-1.01;87.67;100581.22;5073902;28;20232;-56
2024/01/20 04:23:29;;;;;;;16.13;10.27;;;;;;;-1.02;87.67;100592.16;5070127;28;20206;-57
2024/01/20 04:25:57;;;;;;;17.23;10.57;;;;;;;-1.06;88.88;100572.59;5066719;28;20205;-54
2024/01/20 04:28:25;;;;;;;22.80;10.37;;;;;;;-1.09;89.35;100561.47;5073735;28;20201;-56
2024/01/20 04:30:53;;;;;;;18.20;9.77;;;;;;;-1.09;90.62;100582.56;5069677;28;20575;-58
2024/01/20 04:33:21;;;;;;;24.60;11.43;;;;;;;-1.14;91.72;100580.63;5066888;28;20632;-55
2024/01/20 04:35:49;;;;;;;18.87;11.33;;;;;;;-1.20;93.54;100588.81;5073476;28;20252;-58
2024/01/20 04:38:18;;;;;;;21.57;10.73;;;;;;;-1.29;93.90;100566.53;5073183;28;20204;-57
2024/01/20 04:40:47;;;;;;;22.93;11.07;;;;;;;-1.32;95.73;100580.69;5073478;28;20205;-55
2024/01/20 04:43:15;;;;;;;18.97;10.87;;;;;;;-1.38;96.63;100573.69;5065686;28;20201;-54
2024/01/20 04:45:43;;;;;;;28.43;12.70;;;;;;;-1.47;97.43;100578.34;5072406;28;20197;-55
2024/01/20 04:48:11;;;;;;;21.50;10.53;;;;;;;-1.55;98.83;100583.03;5072290;28;20230;-56
2024/01/20 04:50:39;;;;;;;20.93;10.60;;;;;;;-1.57;99.58;100586.28;5064242;28;20818;-57
2024/01/20 04:53:07;;;;;;;25.53;12.07;;;;;;;-1.58;100.00;100577.84;5073288;28;20664;-59
2024/01/20 04:55:35;;;;;;;24.93;12.63;;;;;;;-1.57;100.00;100574.53;5069093;28;20868;-53
2024/01/20 04:58:05;;;;;;;25.00;13.20;;;;;;;-1.62;100.00;100568.41;5073048;28;20665;-56
2024/01/20 05:00:35;;;;;;;19.03;12.60;;;;;;;-1.69;100.00;100576.50;5065953;28;20255;-56
2024/01/20 05:03:03;;;;;;;22.87;13.10;;;;;;;-1.73;100.00;100579.66;5072026;28;20834;-54
2024/01/20 05:05:31;;;;;;;25.50;13.03;;;;;;;-1.77;100.00;100585.34;5072850;28;20209;-56
2024/01/20 05:08:00;;;;;;;21.17;12.80;;;;;;;-1.79;100.00;100594.53;5069104;28;20217;-56
2024/01/20 05:10:28;;;;;;;21.13;12.17;;;;;;;-1.81;100.00;100581.81;5072288;28;20201;-56
2024/01/20 05:12:55;;;;;;;27.43;13.83;;;;;;;-1.79;100.00;100576.84;5067093;28;20289;-55
2024/01/20 05:15:25;;;;;;;26.40;12.60;;;;;;;-1.81;100.00;100586.88;5068406;28;20202;-57
2024/01/20 05:17:53;;;;;;;24.93;14.67;;;;;;;-1.83;100.00;100577.53;5072409;28;20194;-58
2024/01/20 05:20:21;;;;;;;19.30;11.07;;;;;;;-1.84;100.00;100581.72;5069215;28;20279;-55
2024/01/20 05:22:49;;;;;;;25.17;12.50;;;;;;;-1.84;100.00;100583.34;5072810;28;20298;-55
2024/01/20 05:25:17;;;;;;;26.93;12.83;;;;;;;-1.84;100.00;100595.97;5071896;28;20239;-54
2024/01/20 05:27:45;;;;;;;27.83;14.33;;;;;;;-1.86;100.00;100583.28;5068440;28;20731;-53
2024/01/20 05:30:14;;;;;;;28.17;12.53;;;;;;;-1.83;100.00;100582.56;5067671;28;20197;-57
2024/01/20 05:32:43;;;;;;;23.67;12.00;;;;;;;-1.83;100.00;100585.97;5071943;28;20201;-56
2024/01/20 05:35:13;;;;;;;24.60;12.40;;;;;;;-1.84;100.00;100589.28;5065777;28;20194;-55
2024/01/20 05:37:41;;;;;;;26.77;13.37;;;;;;;-1.82;100.00;100586.81;5068523;28;20197;-54
2024/01/20 05:40:10;;;;;;;25.90;13.70;;;;;;;-1.83;100.00;100592.66;5072004;28;20255;-56
2024/01/20 05:42:38;;;;;;;26.10;13.40;;;;;;;-1.86;100.00;100585.81;5072509;28;20220;-56
2024/01/20 05:45:09;;;;;;;25.60;13.80;;;;;;;-1.82;100.00;100595.25;5071153;28;20210;-58
2024/01/20 05:47:37;;;;;;;28.10;14.30;;;;;;;-1.84;100.00;100606.97;5067028;28;20622;-54
2024/01/20 05:50:08;;;;;;;18.63;11.97;;;;;;;-1.85;100.00;100602.69;5058978;28;20702;-57
2024/01/20 05:52:36;;;;;;;25.43;13.10;;;;;;;-1.86;100.00;100618.63;5071795;28;20220;-56
2024/01/20 05:55:05;;;;;;;21.47;12.63;;;;;;;-1.87;100.00;100608.47;5063788;28;20205;-53
2024/01/20 05:57:33;;;;;;;25.90;13.40;;;;;;;-1.92;100.00;100577.94;5071469;28;20197;-56
2024/01/20 06:00:01;;;;;;;29.23;14.07;;;;;;;-1.92;100.00;100604.84;5070326;28;20660;-57
2024/01/20 06:02:29;;;;;;;27.47;16.03;;;;;;;-1.93;100.00;100618.28;5071550;28;20706;-57
2024/01/20 06:04:56;;;;;;;28.53;14.77;;;;;;;-1.92;100.00;100603.19;5063962;28;20233;-55
2024/01/20 06:07:26;;;;;;;26.87;14.87;;;;;;;-1.90;100.00;100598.22;5060014;28;20213;-56
2024/01/20 06:09:54;;;;;;;27.70;12.63;;;;;;;-1.88;100.00;100600.00;5069427;28;20671;-57
2024/01/20 06:12:22;;;;;;;23.87;13.20;;;;;;;-1.85;100.00;100617.84;5071300;28;20216;-55
2024/01/20 06:14:50;;;;;;;38.07;14.50;;;;;;;-1.86;100.00;100595.91;5063371;28;20212;-58
2024/01/20 06:17:18;;;;;;;26.77;12.90;;;;;;;-1.84;100.00;100611.13;5066816;28;20722;-55
2024/01/20 06:19:46;;;;;;;19.63;11.20;;;;;;;-1.82;100.00;100604.50;5071214;28;20595;-56
2024/01/20 06:22:13;;;;;;;19.87;11.23;;;;;;;-1.82;100.00;100614.59;5068104;28;20609;-58
2024/01/20 06:24:43;;;;;;;19.87;11.43;;;;;;;-1.80;100.00;100616.41;5064982;28;20206;-56
2024/01/20 06:27:11;;;;;;;18.90;10.97;;;;;;;-1.78;100.00;100601.31;5068575;28;20267;-54
2024/01/20 06:29:40;;;;;;;16.07;9.60;;;;;;;-1.77;100.00;100619.09;5068828;28;20204;-56
2024/01/20 06:32:08;;;;;;;20.10;11.63;;;;;;;-1.75;100.00;100614.09;5070511;28;20205;-56
2024/01/20 06:34:36;;;;;;;14.63;9.00;;;;;;;-1.74;100.00;100615.81;5060426;28;20204;-56
2024/01/20 06:37:04;;;;;;;17.33;8.87;;;;;;;-1.76;100.00;100575.34;5070023;28;20668;-53
2024/01/20 06:39:32;;;;;;;16.53;9.73;;;;;;;-1.75;100.00;100632.63;5062872;28;20209;-57
2024/01/20 06:42:02;;;;;;;15.00;9.43;;;;;;;-1.77;100.00;100625.78;5069004;28;20205;-59
2024/01/20 06:44:30;;;;;;;21.43;10.97;;;;;;;-1.75;100.00;100646.94;5071099;28;20204;-51
2024/01/20 06:46:58;;;;;;;15.73;9.50;;;;;;;-1.75;100.00;100621.69;5065565;28;20208;-56
2024/01/20 06:49:25;;;;;;;19.73;10.33;;;;;;;-1.73;100.00;100632.69;5070383;28;20244;-57
2024/01/20 06:51:53;;;;;;;17.33;9.10;;;;;;;-1.71;100.00;100651.34;5062602;28;20677;-57
2024/01/20 06:54:21;;;;;;;20.00;10.97;;;;;;;-1.73;100.00;100635.22;5062343;28;20706;-55
2024/01/20 06:56:49;;;;;;;14.00;9.20;;;;;;;-1.70;100.00;100640.44;5063651;28;20263;-55
2024/01/20 06:59:19;;;;;;;16.60;9.93;;;;;;;-1.69;100.00;100621.97;5070100;28;20201;-56
2024/01/20 07:01:47;;;;;;;20.10;10.30;;;;;;;-1.68;100.00;100648.97;5069539;28;20204;-57
2024/01/20 07:04:15;;;;;;;17.90;9.93;;;;;;;-1.73;98.67;100635.22;5071185;28;20194;-54
2024/01/20 07:06:43;;;;;;;15.77;9.70;;;;;;;-1.73;98.71;100650.38;5070399;28;20201;-55
2024/01/20 07:09:11;;;;;;;16.13;10.00;;;;;;;-1.68;99.02;100659.06;5060739;28;20220;-55
2024/01/20 07:11:39;;;;;;;15.07;9.33;;;;;;;-1.70;97.57;100631.19;5068336;28;20529;-56
2024/01/20 07:14:07;;;;;;;18.27;9.63;;;;;;;-1.65;97.18;100628.03;5061366;28;20206;-56
2024/01/20 07:16:37;;;;;;;16.77;8.53;;;;;;;-1.66;96.69;100632.19;5066034;28;20201;-58
2024/01/20 07:19:05;;;;;;;17.53;10.37;;;;;;;-1.61;96.53;100629.91;5071110;28;20201;-59
2024/01/20 07:21:34;;;;;;;15.67;11.03;;;;;;;-1.61;95.45;100640.88;5070977;28;20209;-58
2024/01/20 07:24:04;;;;;;;17.57;9.57;;;;;;;-1.57;95.60;100641.88;5071428;28;20197;-58
2024/01/20 07:26:32;;;;;;;17.70;9.00;;;;;;;-1.53;96.46;100644.63;5064187;28;20244;-60
2024/01/20 07:29:00;;;;;;;17.27;9.27;;;;;;;-1.52;96.24;100648.00;5063380;28;20212;-60
2024/01/20 07:31:28;;;;;;;19.43;10.17;;;;;;;-1.49;95.65;100648.16;5067434;28;20201;-60
2024/01/20 07:33:57;;;;;;;14.23;9.57;;;;;;;-1.49;94.10;100655.72;5066736;28;20220;-64
2024/01/20 07:36:25;;;;;;;18.60;11.60;;;;;;;-1.48;94.52;100658.31;5068934;28;20640;-60
2024/01/20 07:38:53;;;;;;;19.00;10.07;;;;;;;-1.50;95.29;100651.47;5070252;28;20247;-59
2024/01/20 07:41:21;;;;;;;17.97;10.27;;;;;;;-1.47;94.58;100649.09;5069308;28;20205;-62
2024/01/20 07:43:49;;;;;;;19.30;9.70;;;;;;;-1.43;94.24;100662.75;5061983;28;20205;-60
2024/01/20 07:46:17;;;;;;;18.53;11.27;;;;;;;-1.41;94.39;100666.19;5065517;28;20201;-59
2024/01/20 07:48:45;;;;;;;19.20;10.60;;;;;;;-1.40;94.12;100661.22;5069452;28;20229;-59
2024/01/20 07:51:14;;;;;;;19.03;9.37;;;;;;;-1.39;93.13;100646.94;5067562;28;20213;-62
2024/01/20 07:53:43;;;;;;;16.47;9.43;;;;;;;-1.36;92.96;100657.16;5068135;28;20248;-60
2024/01/20 07:56:12;;;;;;;16.43;8.40;;;;;;;-1.34;92.35;100675.81;5070157;28;20660;-59
2024/01/20 07:58:40;;;;;;;17.10;10.63;;;;;;;-1.36;92.21;100677.38;5063141;28;20564;-60
2024/01/20 08:01:09;;;;;;;18.83;10.23;;;;;;;-1.33;92.50;100685.09;5068336;28;20193;-60
2024/01/20 08:03:37;;;;;;;16.60;10.50;;;;;;;-1.34;91.82;100685.91;5067025;28;20197;-62
2024/01/20 08:06:05;;;;;;;16.13;8.80;;;;;;;-1.29;93.14;100670.19;5069117;28;20672;-58
2024/01/20 08:08:35;;;;;;;17.40;9.70;;;;;;;-1.28;91.71;100674.44;5066009;28;20613;-59
2024/01/20 08:11:03;;;;;;;17.00;10.80;;;;;;;-1.24;91.73;100694.00;5065544;28;20630;-60
2024/01/20 08:13:31;;;;;;;14.37;9.27;;;;;;;-1.24;91.04;100683.03;5070426;28;20244;-60
2024/01/20 08:15:59;;;;;;;14.67;10.00;;;;;;;-1.24;90.96;100691.47;5069629;28;20629;-61
2024/01/20 08:18:27;;;;;;;16.27;9.40;;;;;;;-1.22;91.54;100676.34;5067673;28;20200;-59
2024/01/20 08:20:55;;;;;;;18.37;10.90;;;;;;;-1.18;90.86;100670.63;5069780;28;20237;-60
2024/01/20 08:23:26;;;;;;;15.03;10.57;;;;;;;-1.15;91.15;100688.47;5073135;28;20216;-60
2024/01/20 08:25:56;;;;;;;23.20;9.40;;;;;;;-1.13;91.27;100693.63;5073534;28;20688;-62
2024/01/20 08:28:24;;;;;;;22.13;10.07;;;;;;;-1.14;90.75;100689.34;5071468;28;20227;-59
2024/01/20 08:30:53;;;;;;;15.80;9.97;;;;;;;-1.15;91.01;100713.75;5067802;28;20221;-60
2024/01/20 08:33:21;;;;;;;17.30;9.80;;;;;;;-1.18;90.30;100695.06;5073621;28;20600;-60
2024/01/20 08:35:50;;;;;;;13.97;10.10;;;;;;;-1.18;90.47;100695.91;5073411;28;20201;-59
2024/01/20 08:38:18;;;;;;;15.40;11.80;;;;;;;-1.20;90.17;100687.41;5070617;28;20259;-60
2024/01/20 08:40:46;;;;;;;15.23;9.63;;;;;;;-1.18;90.77;100698.44;5069063;28;20205;-60
2024/01/20 08:43:16;;;;;;;18.73;9.57;;;;;;;-1.15;90.44;100691.00;5073530;28;20201;-60
2024/01/20 08:45:44;;;;;;;15.43;9.20;;;;;;;-1.13;90.22;100713.84;5061543;28;20204;-61
2024/01/20 08:48:13;;;;;;;17.17;10.10;;;;;;;-1.15;90.25;100703.66;5073592;28;20209;-61
2024/01/20 08:50:41;;;;;;;18.00;10.73;;;;;;;-1.17;89.93;100709.47;5071817;28;20229;-61
2024/01/20 08:53:09;;;;;;;15.50;10.03;;;;;;;-1.18;89.83;100720.34;5066447;28;20206;-60
2024/01/20 08:55:38;;;;;;;17.20;10.30;;;;;;;-1.21;89.90;100698.34;5068560;28;20198;-61
2024/01/20 08:58:06;;;;;;;16.30;10.17;;;;;;;-1.19;90.55;100701.78;5068711;28;20208;-61
2024/01/20 09:00:35;;;;;;;18.83;10.83;;;;;;;-1.18;90.36;100743.97;5076655;28;20197;-59
2024/01/20 09:03:03;;;;;;;18.47;10.57;;;;;;;-1.18;89.73;100718.69;5073023;28;20258;-63
2024/01/20 09:05:32;;;;;;;16.03;9.47;;;;;;;-1.16;90.04;100712.03;5072615;28;20470;-60
2024/01/20 09:08:09;;;;;;;17.20;10.13;;;;;;;-1.16;89.57;100696.88;5069773;28;20246;-61
2024/01/20 09:10:37;;;;;;;17.47;9.63;;;;;;;-1.14;89.64;100695.28;5068632;28;20255;-63
2024/01/20 09:13:05;;;;;;;14.47;9.60;;;;;;;-1.11;89.74;100709.72;5071620;28;20577;-61
2024/01/20 09:15:35;;;;;;;20.93;10.53;;;;;;;-1.07;89.74;100696.41;5069429;28;20208;-61
2024/01/20 09:18:03;;;;;;;18.73;10.50;;;;;;;-1.07;88.92;100701.47;5068505;28;20601;-61
2024/01/20 09:20:31;;;;;;;16.67;11.57;;;;;;;-1.06;89.12;100706.63;5072477;28;20201;-60
2024/01/20 09:23:00;;;;;;;18.57;10.07;;;;;;;-1.08;88.65;100710.72;5071981;28;20258;-60
2024/01/20 09:25:28;;;;;;;18.87;10.80;;;;;;;-1.07;88.86;100704.00;5067054;28;20213;-60
2024/01/20 09:27:56;;;;;;;17.50;11.17;;;;;;;-1.05;88.44;100698.22;5069384;28;20220;-60
2024/01/20 09:30:24;;;;;;;15.90;10.53;;;;;;;-1.06;88.67;100709.16;5063724;28;20260;-60
2024/01/20 09:32:54;;;;;;;15.63;9.57;;;;;;;-1.03;88.56;100698.28;5069079;28;20209;-61
2024/01/20 09:35:22;;;;;;;15.40;10.83;;;;;;;-1.01;88.37;100707.69;5067248;28;20206;-61
2024/01/20 09:37:50;;;;;;;15.67;9.80;;;;;;;-0.98;88.28;100697.72;5072311;28;20201;-59
2024/01/20 09:40:18;;;;;;;16.10;10.57;;;;;;;-0.94;88.00;100687.72;5068615;28;20201;-61
2024/01/20 09:42:47;;;;;;;19.90;10.90;;;;;;;-0.92;87.88;100676.00;5072985;28;20202;-58
2024/01/20 09:45:15;;;;;;;23.10;11.37;;;;;;;-0.91;87.36;100691.28;5072497;28;20579;-61
2024/01/20 09:47:43;;;;;;;16.90;10.37;;;;;;;-0.90;87.42;100672.75;5062213;28;20206;-59
2024/01/20 09:50:13;;;;;;;17.83;10.87;;;;;;;-0.83;87.82;100684.03;5066879;28;20272;-59
2024/01/20 09:52:56;;;;;;;23.10;12.37;;;;;;;-0.79;86.72;100689.28;5068515;28;20201;-61
2024/01/20 09:55:26;;;;;;;17.97;11.70;;;;;;;-0.78;86.75;100685.94;5064716;28;20209;-61
2024/01/20 09:57:54;;;;;;;17.07;10.53;;;;;;;-0.75;87.34;100685.22;5066772;28;20201;-61
2024/01/20 10:00:26;;;;;;;18.60;9.77;;;;;;;-0.74;86.65;100676.81;5063988;28;20548;-59
2024/01/20 10:02:54;;;;;;;17.83;11.70;;;;;;;-0.73;86.17;100694.63;5063228;28;20546;-59
2024/01/20 10:05:25;;;;;;;19.13;12.60;;;;;;;-0.77;85.80;100689.34;5072242;28;20579;-58
2024/01/20 10:07:53;;;;;;;18.23;10.70;;;;;;;-0.75;86.29;100690.28;5067235;28;20247;-58
2024/01/20 10:10:22;;;;;;;17.03;10.47;;;;;;;-0.75;86.41;100688.59;5066273;28;20319;-58
2024/01/20 10:12:51;;;;;;;16.07;10.27;;;;;;;-0.72;86.08;100680.28;5063717;28;20202;-58
2024/01/20 10:15:23;;;;;;;16.30;10.77;;;;;;;-0.74;86.02;100690.38;5064983;28;20665;-57
2024/01/20 10:17:51;;;;;;;17.73;11.47;;;;;;;-0.74;85.34;100697.06;5060314;28;20204;-56
2024/01/20 10:20:20;;;;;;;17.47;11.40;;;;;;;-0.73;85.81;100689.56;5068315;28;20704;-57
2024/01/20 10:22:50;;;;;;;17.13;10.67;;;;;;;-0.69;85.23;100669.44;5068186;28;20204;-59
2024/01/20 10:25:19;;;;;;;20.93;10.43;;;;;;;-0.68;85.63;100697.34;5065875;28;20208;-59
2024/01/20 10:27:49;;;;;;;18.03;9.93;;;;;;;-0.67;85.43;100698.19;5069035;28;20716;-57
2024/01/20 10:30:17;;;;;;;18.73;11.63;;;;;;;-0.65;84.66;100701.69;5064868;28;20227;-57
2024/01/20 10:32:49;;;;;;;16.43;10.17;;;;;;;-0.68;84.44;100678.78;5064397;28;21981;-58
2024/01/20 10:35:20;;;;;;;17.77;10.73;;;;;;;-0.67;84.40;100677.97;5066931;28;20224;-58
2024/01/20 10:37:50;;;;;;;17.73;10.10;;;;;;;-0.66;84.64;100669.56;5061380;28;20255;-57
2024/01/20 10:40:19;;;;;;;18.97;10.50;;;;;;;-0.65;84.78;100676.38;5060354;28;20626;-58
2024/01/20 10:42:47;;;;;;;16.37;11.13;;;;;;;-0.60;84.18;100660.56;5061125;28;20221;-56
2024/01/20 10:45:17;;;;;;;18.93;11.77;;;;;;;-0.53;83.94;100698.00;5067944;28;20699;-59
2024/01/20 10:48:02;;;;;;;16.40;10.63;;;;;;;-0.51;83.71;100672.78;5059557;28;20639;-55
2024/01/20 10:50:31;;;;;;;17.00;11.20;;;;;;;-0.54;83.38;100680.25;5066571;28;20224;-59
2024/01/20 10:53:00;;;;;;;20.80;11.93;;;;;;;-0.53;83.51;100681.97;5070679;28;20579;-56
2024/01/20 10:55:31;;;;;;;17.50;10.33;;;;;;;-0.50;83.42;100677.91;5071072;28;20288;-59
2024/01/20 10:58:00;;;;;;;17.73;9.43;;;;;;;-0.49;83.43;100674.56;5062593;28;20274;-59
2024/01/20 11:00:28;;;;;;;17.33;9.13;;;;;;;-0.45;83.17;100685.69;5068485;28;20197;-57
2024/01/20 11:02:56;;;;;;;19.77;10.97;;;;;;;-0.47;82.72;100678.84;5071074;28;20299;-56
2024/01/20 11:05:26;;;;;;;17.87;10.23;;;;;;;-0.45;83.14;100689.88;5062654;28;20215;-57
2024/01/20 11:08:04;;;;;;;16.73;10.30;;;;;;;-0.45;82.96;100685.69;5066667;28;20217;-57
2024/01/20 11:10:41;;;;;;;17.10;11.17;;;;;;;-0.47;82.33;100683.91;5065793;28;20259;-56
2024/01/20 11:13:11;;;;;;;15.30;9.60;;;;;;;-0.49;82.63;100689.75;5066908;28;20205;-55
2024/01/20 11:15:41;;;;;;;18.90;10.20;;;;;;;-0.49;82.72;100679.63;5057055;28;20202;-56